Time;durP1;ratioP1;P1;durP2;ratioP2;P2;SDS_P1;SDS_P2;PMS_P1;PMS_P2;Temp;Humidity;BMP_temperature;BMP_pressure;BME280_temperature;BME280_humidity;BME280_pressure;Samples;Min_cycle;Max_cycle;Signal;HPM_P1;HPM_P2
2023/10/25 00:00:15;;;;;;;1.00;0.90;;;;;;;;;;5112492;27;20046;-58
2023/10/25 00:02:41;;;;;;;1.10;1.00;;;;;;;;;;5104763;27;20032;-57
2023/10/25 00:05:07;;;;;;;1.02;0.93;;;;;;;;;;5109434;27;20035;-58
2023/10/25 00:07:33;;;;;;;1.88;1.00;;;;;;;;;;5096906;27;20039;-57
2023/10/25 00:10:02;;;;;;;1.27;1.17;;;;;;;;;;5118324;27;20035;-57
2023/10/25 00:12:30;;;;;;;1.55;1.15;;;;;;;;;;5107901;27;20038;-57
2023/10/25 00:14:57;;;;;;;1.70;1.25;;;;;;;;;;5103851;28;20502;-58
2023/10/25 00:17:23;;;;;;;1.52;1.33;;;;;;;;;;5098584;27;20044;-57
2023/10/25 00:19:50;;;;;;;1.45;1.20;;;;;;;;;;5106371;28;20479;-58
2023/10/25 00:22:16;;;;;;;1.67;1.10;;;;;;;;;;5105507;28;20553;-59
2023/10/25 00:24:42;;;;;;;1.60;1.10;;;;;;;;;;5089257;28;20218;-57
2023/10/25 00:27:08;;;;;;;1.20;1.10;;;;;;;;;;5105594;28;20051;-57
2023/10/25 00:29:34;;;;;;;4.00;1.30;;;;;;;;;;5105941;28;20047;-58
2023/10/25 00:32:01;;;;;;;1.33;1.20;;;;;;;;;;5105635;28;20047;-57
2023/10/25 00:34:27;;;;;;;1.90;1.33;;;;;;;;;;5103670;28;20048;-57
2023/10/25 00:36:53;;;;;;;1.50;1.25;;;;;;;;;;5106901;28;20035;-58
2023/10/25 00:39:19;;;;;;;1.30;1.20;;;;;;;;;;5111943;27;20043;-57
2023/10/25 00:41:45;;;;;;;2.80;1.10;;;;;;;;;;5103831;28;20036;-57
2023/10/25 00:44:11;;;;;;;1.20;1.10;;;;;;;;;;5105224;28;20510;-57
2023/10/25 00:46:38;;;;;;;1.45;1.33;;;;;;;;;;5105092;28;20031;-57
2023/10/25 00:49:06;;;;;;;3.50;1.38;;;;;;;;;;5106754;28;20038;-58
2023/10/25 00:51:32;;;;;;;1.40;1.30;;;;;;;;;;5102082;28;20522;-57
2023/10/25 00:54:01;;;;;;;1.17;1.02;;;;;;;;;;5108108;28;20408;-58
2023/10/25 00:56:31;;;;;;;1.50;1.30;;;;;;;;;;5077234;27;20051;-58
2023/10/25 00:58:57;;;;;;;1.38;1.10;;;;;;;;;;5108690;28;20487;-57
2023/10/25 01:01:25;;;;;;;1.70;1.30;;;;;;;;;;5082408;28;20446;-58
2023/10/25 01:03:52;;;;;;;2.45;1.23;;;;;;;;;;5097232;27;20522;-57
2023/10/25 01:06:19;;;;;;;1.60;1.10;;;;;;;;;;5100678;28;20054;-58
2023/10/25 01:08:45;;;;;;;4.25;1.45;;;;;;;;;;5082085;28;20040;-58
2023/10/25 01:11:12;;;;;;;3.05;1.20;;;;;;;;;;5097365;28;20036;-58
2023/10/25 01:13:39;;;;;;;2.05;1.35;;;;;;;;;;5101161;28;20032;-58
2023/10/25 01:16:05;;;;;;;2.30;1.50;;;;;;;;;;5102510;28;20031;-58
2023/10/25 01:18:32;;;;;;;2.83;1.52;;;;;;;;;;5104532;28;20046;-57
2023/10/25 01:20:58;;;;;;;1.75;1.52;;;;;;;;;;5104765;28;20031;-58
2023/10/25 01:23:24;;;;;;;1.38;1.20;;;;;;;;;;5086327;28;20047;-57
2023/10/25 01:25:50;;;;;;;1.95;1.63;;;;;;;;;;5105225;28;20154;-58
2023/10/25 01:28:17;;;;;;;1.90;1.55;;;;;;;;;;5104102;27;20051;-58
2023/10/25 01:30:43;;;;;;;3.75;1.80;;;;;;;;;;5106282;27;20040;-58
2023/10/25 01:33:09;;;;;;;2.65;1.63;;;;;;;;;;5104048;28;20037;-58
2023/10/25 01:35:35;;;;;;;3.10;1.60;;;;;;;;;;5095991;28;20050;-58
2023/10/25 01:38:02;;;;;;;3.35;1.40;;;;;;;;;;5104172;28;20031;-58
2023/10/25 01:40:29;;;;;;;1.85;1.55;;;;;;;;;;5103422;28;20050;-58
2023/10/25 01:42:55;;;;;;;2.03;1.60;;;;;;;;;;5103983;28;20050;-59
2023/10/25 01:45:23;;;;;;;1.95;1.58;;;;;;;;;;5102021;28;20055;-58
2023/10/25 01:47:50;;;;;;;2.58;1.67;;;;;;;;;;5104904;28;20043;-58
2023/10/25 01:50:16;;;;;;;2.08;1.30;;;;;;;;;;5103519;28;20028;-58
2023/10/25 01:52:42;;;;;;;1.63;1.50;;;;;;;;;;5105879;28;20038;-58
2023/10/25 01:55:09;;;;;;;2.42;1.25;;;;;;;;;;5083373;28;20502;-58
2023/10/25 01:57:35;;;;;;;1.98;1.35;;;;;;;;;;5101583;28;20040;-58
2023/10/25 02:00:03;;;;;;;2.20;1.50;;;;;;;;;;5083807;28;20036;-58
2023/10/25 02:02:39;;;;;;;1.40;1.30;;;;;;;;;;5101512;28;20537;-58
2023/10/25 02:05:05;;;;;;;2.58;1.30;;;;;;;;;;5082612;28;20051;-58
2023/10/25 02:07:31;;;;;;;2.00;1.73;;;;;;;;;;5098207;28;20031;-58
2023/10/25 02:09:57;;;;;;;2.70;2.38;;;;;;;;;;5100924;28;20050;-57
2023/10/25 02:12:24;;;;;;;1.67;1.50;;;;;;;;;;5079621;28;20043;-57
2023/10/25 02:14:50;;;;;;;1.45;1.30;;;;;;;;;;5111477;27;20047;-58
2023/10/25 02:17:17;;;;;;;2.42;1.50;;;;;;;;;;5086603;28;20024;-58
2023/10/25 02:19:45;;;;;;;1.60;1.38;;;;;;;;;;5105364;28;20487;-58
2023/10/25 02:22:12;;;;;;;5.95;1.90;;;;;;;;;;5086415;28;20032;-58
2023/10/25 02:24:38;;;;;;;1.77;1.67;;;;;;;;;;5103949;28;20043;-58
2023/10/25 02:27:04;;;;;;;2.78;1.88;;;;;;;;;;5104446;28;20031;-59
2023/10/25 02:29:31;;;;;;;2.75;1.80;;;;;;;;;;5102847;28;20078;-58
2023/10/25 02:31:57;;;;;;;2.47;1.80;;;;;;;;;;5069125;28;20063;-60
2023/10/25 02:34:23;;;;;;;2.45;2.10;;;;;;;;;;5102151;28;20051;-57
2023/10/25 02:36:49;;;;;;;2.95;2.40;;;;;;;;;;5086198;28;20028;-59
2023/10/25 02:39:17;;;;;;;2.92;2.15;;;;;;;;;;5103554;28;20047;-58
2023/10/25 02:41:43;;;;;;;2.60;2.20;;;;;;;;;;5083236;28;20032;-58
2023/10/25 02:44:09;;;;;;;2.45;2.25;;;;;;;;;;5083618;28;20046;-58
2023/10/25 02:46:36;;;;;;;3.80;2.55;;;;;;;;;;5109071;27;20047;-57
2023/10/25 02:49:02;;;;;;;3.60;3.05;;;;;;;;;;5102944;28;20035;-57
2023/10/25 02:51:28;;;;;;;3.03;2.58;;;;;;;;;;5066671;28;20038;-57
2023/10/25 02:53:55;;;;;;;3.53;2.88;;;;;;;;;;5099602;28;20047;-58
2023/10/25 02:56:21;;;;;;;3.15;2.78;;;;;;;;;;5084371;28;20530;-58
2023/10/25 02:58:47;;;;;;;3.30;2.75;;;;;;;;;;5103169;28;20023;-58
2023/10/25 03:01:23;;;;;;;3.38;2.78;;;;;;;;;;5097552;28;20047;-59
2023/10/25 03:03:51;;;;;;;4.00;2.80;;;;;;;;;;5097887;28;20410;-58
2023/10/25 03:06:18;;;;;;;3.40;2.83;;;;;;;;;;5097311;28;20059;-57
2023/10/25 03:08:44;;;;;;;3.78;2.80;;;;;;;;;;5094630;28;20046;-57
2023/10/25 03:11:11;;;;;;;3.25;2.60;;;;;;;;;;5099176;28;20044;-58
2023/10/25 03:13:37;;;;;;;3.20;2.63;;;;;;;;;;5103610;28;20483;-58
2023/10/25 03:16:04;;;;;;;4.78;2.45;;;;;;;;;;5086211;28;20035;-58
2023/10/25 03:18:32;;;;;;;3.08;2.38;;;;;;;;;;5102477;28;20059;-58
2023/10/25 03:21:02;;;;;;;2.90;2.30;;;;;;;;;;5082948;28;20027;-58
2023/10/25 03:23:30;;;;;;;2.90;2.55;;;;;;;;;;5102637;28;20032;-58
2023/10/25 03:26:02;;;;;;;3.10;2.42;;;;;;;;;;5084426;28;20036;-58
2023/10/25 03:28:28;;;;;;;5.32;3.35;;;;;;;;;;5103280;28;20058;-58
2023/10/25 03:30:54;;;;;;;4.20;2.92;;;;;;;;;;5099828;28;20051;-58
2023/10/25 03:33:20;;;;;;;4.53;2.97;;;;;;;;;;5102763;28;20533;-58
2023/10/25 03:35:53;;;;;;;6.18;3.28;;;;;;;;;;5102923;28;20074;-58
2023/10/25 03:38:19;;;;;;;4.00;2.75;;;;;;;;;;5081946;28;20039;-58
2023/10/25 03:40:46;;;;;;;3.53;2.72;;;;;;;;;;5100398;28;20032;-58
2023/10/25 03:43:13;;;;;;;3.60;3.00;;;;;;;;;;5103549;28;20051;-58
2023/10/25 03:45:39;;;;;;;5.50;3.50;;;;;;;;;;5102269;28;20027;-57
2023/10/25 03:48:05;;;;;;;3.60;2.90;;;;;;;;;;5101118;28;20043;-58
2023/10/25 03:50:31;;;;;;;4.40;3.20;;;;;;;;;;5103219;28;20052;-58
2023/10/25 03:52:57;;;;;;;4.50;3.17;;;;;;;;;;5087758;28;20059;-58
2023/10/25 03:55:24;;;;;;;5.13;3.15;;;;;;;;;;5083566;28;20043;-58
2023/10/25 03:57:50;;;;;;;5.53;3.65;;;;;;;;;;5085731;28;20054;-58
2023/10/25 04:00:16;;;;;;;7.65;3.65;;;;;;;;;;5101134;28;20051;-58
2023/10/25 04:02:42;;;;;;;5.97;3.90;;;;;;;;;;5105057;28;20040;-58
2023/10/25 04:05:08;;;;;;;5.45;3.90;;;;;;;;;;5099154;28;20024;-58
2023/10/25 04:07:34;;;;;;;8.02;4.80;;;;;;;;;;5100721;28;20058;-58
2023/10/25 04:10:01;;;;;;;6.40;4.15;;;;;;;;;;5106570;28;20027;-57
2023/10/25 04:12:28;;;;;;;6.18;3.95;;;;;;;;;;5113759;27;20055;-57
2023/10/25 04:14:54;;;;;;;5.30;3.70;;;;;;;;;;5088688;28;20054;-58
2023/10/25 04:17:20;;;;;;;7.25;4.50;;;;;;;;;;5106170;28;20036;-58
2023/10/25 04:19:47;;;;;;;6.82;4.18;;;;;;;;;;5106376;28;20028;-58
2023/10/25 04:22:13;;;;;;;8.45;4.63;;;;;;;;;;5105523;28;20040;-58
2023/10/25 04:24:39;;;;;;;6.53;4.28;;;;;;;;;;5100595;28;20730;-58
2023/10/25 04:27:05;;;;;;;6.85;4.60;;;;;;;;;;5107195;28;20038;-58
2023/10/25 04:29:32;;;;;;;5.75;3.90;;;;;;;;;;5106198;28;20031;-58
2023/10/25 04:31:58;;;;;;;6.93;4.40;;;;;;;;;;5106535;28;20039;-58
2023/10/25 04:34:24;;;;;;;7.88;4.32;;;;;;;;;;5105468;28;20027;-58
2023/10/25 04:36:50;;;;;;;6.78;4.40;;;;;;;;;;5105665;28;20055;-58
2023/10/25 04:39:16;;;;;;;6.97;3.83;;;;;;;;;;5085271;28;20031;-58
2023/10/25 04:41:42;;;;;;;7.22;4.50;;;;;;;;;;5106012;28;20028;-58
2023/10/25 04:44:08;;;;;;;9.30;4.55;;;;;;;;;;5101874;28;20035;-58
2023/10/25 04:46:34;;;;;;;5.97;3.95;;;;;;;;;;5073199;28;20044;-58
2023/10/25 04:49:00;;;;;;;6.88;4.00;;;;;;;;;;5085507;28;20032;-58
2023/10/25 04:51:27;;;;;;;6.25;3.75;;;;;;;;;;5102077;28;20055;-59
2023/10/25 04:53:53;;;;;;;5.78;3.88;;;;;;;;;;5105478;28;20039;-58
2023/10/25 04:56:23;;;;;;;7.22;4.25;;;;;;;;;;5081588;28;20040;-58
2023/10/25 04:58:49;;;;;;;10.00;4.40;;;;;;;;;;5101515;28;20035;-58
2023/10/25 05:01:15;;;;;;;6.57;4.18;;;;;;;;;;5098598;28;20050;-58
2023/10/25 05:03:43;;;;;;;5.75;4.20;;;;;;;;;;5102916;27;20044;-58
2023/10/25 05:06:10;;;;;;;5.82;4.03;;;;;;;;;;5105422;28;20411;-58
2023/10/25 05:08:36;;;;;;;6.95;4.38;;;;;;;;;;5102598;28;20036;-58
2023/10/25 05:11:06;;;;;;;6.00;4.10;;;;;;;;;;5104224;28;20035;-58
2023/10/25 05:13:33;;;;;;;6.68;4.80;;;;;;;;;;5105329;28;20047;-57
2023/10/25 05:16:00;;;;;;;5.25;3.72;;;;;;;;;;5106590;28;20032;-57
2023/10/25 05:18:26;;;;;;;7.15;4.32;;;;;;;;;;5104283;28;20058;-58
2023/10/25 05:21:00;;;;;;;6.78;4.07;;;;;;;;;;5102939;28;20046;-57
2023/10/25 05:23:31;;;;;;;5.57;3.60;;;;;;;;;;5103582;28;20047;-57
2023/10/25 05:26:00;;;;;;;5.97;4.07;;;;;;;;;;5105070;28;20048;-58
2023/10/25 05:28:26;;;;;;;7.07;4.28;;;;;;;;;;5105383;27;20046;-58
2023/10/25 05:30:55;;;;;;;6.30;3.70;;;;;;;;;;5102671;28;20055;-58
2023/10/25 05:33:24;;;;;;;6.88;3.85;;;;;;;;;;5104171;28;20031;-58
2023/10/25 05:35:50;;;;;;;6.35;4.15;;;;;;;;;;5105961;28;20032;-57
2023/10/25 05:38:17;;;;;;;5.10;3.30;;;;;;;;;;5087254;28;20042;-58
2023/10/25 05:40:46;;;;;;;5.43;3.78;;;;;;;;;;5103506;28;20043;-57
2023/10/25 05:43:14;;;;;;;;;;;;;;;;;;5101421;27;20435;-58
2023/10/25 05:45:42;;;;;;;5.60;3.90;;;;;;;;;;5101490;28;19919;-58
2023/10/25 05:48:13;;;;;;;7.47;4.15;;;;;;;;;;5105674;28;20426;-58
2023/10/25 05:50:43;;;;;;;6.22;4.05;;;;;;;;;;5100351;28;20036;-58
2023/10/25 05:53:10;;;;;;;6.57;4.57;;;;;;;;;;5097904;28;20047;-58
2023/10/25 05:55:37;;;;;;;7.20;4.63;;;;;;;;;;5100699;28;20031;-58
2023/10/25 05:58:03;;;;;;;5.57;4.18;;;;;;;;;;5100004;28;20027;-57
2023/10/25 06:00:30;;;;;;;5.75;3.95;;;;;;;;;;5097649;28;20032;-58
2023/10/25 06:03:00;;;;;;;6.15;3.90;;;;;;;;;;5105599;28;20047;-58
2023/10/25 06:05:31;;;;;;;7.10;4.07;;;;;;;;;;5102685;28;20048;-57
2023/10/25 06:07:57;;;;;;;7.40;3.92;;;;;;;;;;5096439;28;20510;-58
2023/10/25 06:10:23;;;;;;;6.32;4.35;;;;;;;;;;5102096;27;20046;-58
2023/10/25 06:12:50;;;;;;;8.68;4.10;;;;;;;;;;5103275;28;20032;-58
2023/10/25 06:15:16;;;;;;;5.72;3.67;;;;;;;;;;5102803;28;20048;-58
2023/10/25 06:17:42;;;;;;;6.18;4.30;;;;;;;;;;5101794;28;20054;-58
2023/10/25 06:20:10;;;;;;;8.07;3.90;;;;;;;;;;5102005;28;20036;-58
2023/10/25 06:22:36;;;;;;;8.20;4.53;;;;;;;;;;5102297;28;20039;-58
2023/10/25 06:25:05;;;;;;;7.15;4.50;;;;;;;;;;5104023;28;20415;-58
2023/10/25 06:27:31;;;;;;;5.93;4.22;;;;;;;;;;5103449;28;20050;-58
2023/10/25 06:29:57;;;;;;;6.90;4.00;;;;;;;;;;5102154;28;20036;-58
2023/10/25 06:32:23;;;;;;;7.30;4.35;;;;;;;;;;5102581;28;20047;-58
2023/10/25 06:34:49;;;;;;;7.28;4.57;;;;;;;;;;5085371;28;20387;-57
2023/10/25 06:37:15;;;;;;;7.45;4.35;;;;;;;;;;5104064;28;20047;-58
2023/10/25 06:39:42;;;;;;;6.60;4.20;;;;;;;;;;5101739;28;20047;-59
2023/10/25 06:42:10;;;;;;;5.95;4.10;;;;;;;;;;5099173;28;20055;-59
2023/10/25 06:44:36;;;;;;;5.97;4.07;;;;;;;;;;5102094;27;20027;-58
2023/10/25 06:47:04;;;;;;;6.50;4.57;;;;;;;;;;5102451;28;20058;-59
2023/10/25 06:49:30;;;;;;;7.05;4.35;;;;;;;;;;5099750;28;20048;-59
2023/10/25 06:51:56;;;;;;;5.10;4.05;;;;;;;;;;5098114;28;20036;-58
2023/10/25 06:54:23;;;;;;;6.95;4.22;;;;;;;;;;5097462;28;20046;-58
2023/10/25 06:56:49;;;;;;;5.57;4.07;;;;;;;;;;5121454;27;20031;-58
2023/10/25 06:59:15;;;;;;;5.78;3.70;;;;;;;;;;5103843;28;20039;-58
2023/10/25 07:01:44;;;;;;;7.38;4.00;;;;;;;;;;5103521;28;20490;-58
2023/10/25 07:04:16;;;;;;;5.20;3.53;;;;;;;;;;5095410;28;20102;-61
2023/10/25 07:06:45;;;;;;;4.45;3.60;;;;;;;;;;5095367;28;20116;-58
2023/10/25 07:09:14;;;;;;;5.15;3.13;;;;;;;;;;5088752;28;20043;-58
2023/10/25 07:11:40;;;;;;;4.30;2.83;;;;;;;;;;5110881;28;20036;-59
2023/10/25 07:14:06;;;;;;;4.95;3.47;;;;;;;;;;5103299;28;20035;-58
2023/10/25 07:16:32;;;;;;;3.83;2.83;;;;;;;;;;5110657;28;20027;-59
2023/10/25 07:18:58;;;;;;;4.00;3.20;;;;;;;;;;5106380;28;20032;-59
2023/10/25 07:21:24;;;;;;;4.57;3.42;;;;;;;;;;5105043;28;20059;-58
2023/10/25 07:23:51;;;;;;;3.78;2.90;;;;;;;;;;5111278;28;20411;-58
2023/10/25 07:26:17;;;;;;;4.25;3.03;;;;;;;;;;5090951;28;20063;-59
2023/10/25 07:28:43;;;;;;;4.63;3.33;;;;;;;;;;5114379;27;20031;-58
2023/10/25 07:31:09;;;;;;;6.25;4.38;;;;;;;;;;5112904;27;20036;-58
2023/10/25 07:33:35;;;;;;;4.75;3.33;;;;;;;;;;5113568;27;20046;-59
2023/10/25 07:36:03;;;;;;;5.30;3.80;;;;;;;;;;5114177;27;20035;-59
2023/10/25 07:38:29;;;;;;;4.85;3.50;;;;;;;;;;5114222;27;20035;-58
2023/10/25 07:40:55;;;;;;;4.78;3.10;;;;;;;;;;5114329;27;20043;-58
2023/10/25 07:43:21;;;;;;;6.63;3.85;;;;;;;;;;5120801;27;20032;-58
2023/10/25 07:45:47;;;;;;;4.57;2.90;;;;;;;;;;5116134;27;20461;-58
2023/10/25 07:48:13;;;;;;;5.03;3.42;;;;;;;;;;5122468;27;20047;-58
2023/10/25 07:50:39;;;;;;;4.97;3.45;;;;;;;;;;5104500;27;20035;-58
2023/10/25 07:53:05;;;;;;;4.53;3.40;;;;;;;;;;5114824;27;20042;-58
2023/10/25 07:55:33;;;;;;;3.88;3.10;;;;;;;;;;5117311;27;20520;-58
2023/10/25 07:57:59;;;;;;;4.47;3.10;;;;;;;;;;5116554;27;20533;-58
2023/10/25 08:00:25;;;;;;;4.45;3.28;;;;;;;;;;5118454;27;20055;-58
2023/10/25 08:02:51;;;;;;;6.53;3.08;;;;;;;;;;5105119;27;20056;-57
2023/10/25 08:05:17;;;;;;;3.97;2.90;;;;;;;;;;5111970;27;20415;-58
2023/10/25 08:07:45;;;;;;;5.03;2.83;;;;;;;;;;5117896;27;20043;-58
2023/10/25 08:10:11;;;;;;;5.53;3.30;;;;;;;;;;5114044;27;20054;-58
2023/10/25 08:12:37;;;;;;;3.50;2.92;;;;;;;;;;5108590;27;20031;-57
2023/10/25 08:15:05;;;;;;;4.95;3.00;;;;;;;;;;5108448;27;20051;-58
2023/10/25 08:17:31;;;;;;;7.95;3.53;;;;;;;;;;5114182;27;20406;-58
2023/10/25 08:19:57;;;;;;;2.95;2.65;;;;;;;;;;5115137;27;20490;-58
2023/10/25 08:22:23;;;;;;;3.88;2.97;;;;;;;;;;5111268;27;20039;-57
2023/10/25 08:24:50;;;;;;;3.70;2.55;;;;;;;;;;5124246;27;20072;-58
2023/10/25 08:27:17;;;;;;;5.55;2.72;;;;;;;;;;5124166;27;20055;-58
2023/10/25 08:29:43;;;;;;;4.35;2.85;;;;;;;;;;5128418;27;20027;-57
2023/10/25 08:32:09;;;;;;;4.78;2.30;;;;;;;;;;5114224;27;20036;-57
2023/10/25 08:34:35;;;;;;;4.22;2.80;;;;;;;;;;5113810;27;20045;-58
2023/10/25 08:37:01;;;;;;;2.80;2.50;;;;;;;;;;5109827;27;20497;-58
2023/10/25 08:39:27;;;;;;;3.75;2.90;;;;;;;;;;5116196;27;20491;-58
2023/10/25 08:41:54;;;;;;;3.67;2.80;;;;;;;;;;5092172;28;20047;-58
2023/10/25 08:44:20;;;;;;;4.85;2.22;;;;;;;;;;5118756;27;20028;-59
2023/10/25 08:46:49;;;;;;;2.95;2.33;;;;;;;;;;5123375;27;20031;-58
2023/10/25 08:49:15;;;;;;;2.85;2.25;;;;;;;;;;5093753;27;20054;-58
2023/10/25 08:51:44;;;;;;;4.05;2.33;;;;;;;;;;5115327;27;20035;-59
2023/10/25 08:54:10;;;;;;;3.25;2.22;;;;;;;;;;5114093;27;20064;-60
2023/10/25 08:56:37;;;;;;;4.10;3.08;;;;;;;;;;5111124;27;20030;-58
2023/10/25 08:59:05;;;;;;;4.32;2.55;;;;;;;;;;5119484;27;20038;-59
2023/10/25 09:01:31;;;;;;;5.55;3.20;;;;;;;;;;5107240;27;20031;-59
2023/10/25 09:04:05;;;;;;;3.97;3.05;;;;;;;;;;5108169;27;20093;-59
2023/10/25 09:06:31;;;;;;;5.50;3.50;;;;;;;;;;5114079;27;20039;-60
2023/10/25 09:08:59;;;;;;;4.10;3.28;;;;;;;;;;5108885;27;20529;-59
2023/10/25 09:11:36;;;;;;;6.03;3.33;;;;;;;;;;5105941;27;20044;-60
2023/10/25 09:14:02;;;;;;;5.35;3.83;;;;;;;;;;5107949;27;20032;-59
2023/10/25 09:16:30;;;;;;;5.65;3.70;;;;;;;;;;5111223;27;20048;-59
2023/10/25 09:19:01;;;;;;;5.03;3.05;;;;;;;;;;5112601;27;20433;-59
2023/10/25 09:21:28;;;;;;;4.45;2.90;;;;;;;;;;5109930;27;20032;-59
2023/10/25 09:23:59;;;;;;;5.35;3.20;;;;;;;;;;5107756;27;20049;-59
2023/10/25 09:26:32;;;;;;;5.95;4.18;;;;;;;;;;5106839;27;20043;-59
2023/10/25 09:28:58;;;;;;;5.05;3.25;;;;;;;;;;5083623;28;20406;-59
2023/10/25 09:31:27;;;;;;;4.82;3.88;;;;;;;;;;5101353;28;20036;-59
2023/10/25 09:33:59;;;;;;;4.93;3.40;;;;;;;;;;5111798;27;20051;-59
2023/10/25 09:36:26;;;;;;;5.18;3.05;;;;;;;;;;5112798;27;20043;-59
2023/10/25 09:38:53;;;;;;;4.72;3.08;;;;;;;;;;5097141;28;20042;-57
2023/10/25 09:41:20;;;;;;;6.10;3.67;;;;;;;;;;5109600;27;20050;-61
2023/10/25 09:43:50;;;;;;;4.45;2.83;;;;;;;;;;5113829;27;20035;-58
2023/10/25 09:46:22;;;;;;;4.75;3.30;;;;;;;;;;5118228;27;20058;-58
2023/10/25 09:48:54;;;;;;;4.28;3.13;;;;;;;;;;5103614;28;20465;-58
2023/10/25 09:51:47;;;;;;;4.38;2.85;;;;;;;;;;5097075;27;20043;-59
2023/10/25 09:54:13;;;;;;;3.67;2.60;;;;;;;;;;5102148;27;20406;-59
2023/10/25 09:56:40;;;;;;;4.00;3.10;;;;;;;;;;5113857;27;20035;-59
2023/10/25 09:59:08;;;;;;;3.58;2.75;;;;;;;;;;5103693;27;20055;-59
2023/10/25 10:01:35;;;;;;;5.85;2.85;;;;;;;;;;5108489;27;20047;-58
2023/10/25 10:04:16;;;;;;;5.15;2.65;;;;;;;;;;5093344;28;20644;-58
2023/10/25 10:07:19;;;;;;;3.10;2.60;;;;;;;;;;5099406;28;20047;-58
2023/10/25 10:09:58;;;;;;;2.65;2.10;;;;;;;;;;5095819;28;20384;-58
2023/10/25 10:12:25;;;;;;;5.57;3.50;;;;;;;;;;5106713;28;20054;-58
2023/10/25 10:14:52;;;;;;;3.70;2.75;;;;;;;;;;5096369;28;20120;-58
2023/10/25 10:17:18;;;;;;;3.85;2.65;;;;;;;;;;5097800;28;20414;-57
2023/10/25 10:19:46;;;;;;;3.28;2.78;;;;;;;;;;5089999;28;20063;-59
2023/10/25 10:22:14;;;;;;;2.70;2.30;;;;;;;;;;5103465;28;20050;-59
2023/10/25 10:24:42;;;;;;;4.72;2.40;;;;;;;;;;5106818;28;20035;-59
2023/10/25 10:27:12;;;;;;;5.47;2.90;;;;;;;;;;5115440;27;20460;-59
2023/10/25 10:29:40;;;;;;;3.83;2.42;;;;;;;;;;5101566;28;20042;-59
2023/10/25 10:32:07;;;;;;;3.35;2.50;;;;;;;;;;5085915;28;20055;-59
2023/10/25 10:34:43;;;;;;;3.85;2.65;;;;;;;;;;5107501;27;20046;-59
2023/10/25 10:37:12;;;;;;;3.50;2.30;;;;;;;;;;5117312;27;20035;-58
2023/10/25 10:39:59;;;;;;;3.10;2.67;;;;;;;;;;5102379;28;20027;-58
2023/10/25 10:42:28;;;;;;;6.55;3.22;;;;;;;;;;5104561;28;20027;-58
2023/10/25 10:44:55;;;;;;;4.67;2.30;;;;;;;;;;5105811;28;20387;-58
2023/10/25 10:47:37;;;;;;;4.15;2.20;;;;;;;;;;5113389;27;20289;-57
2023/10/25 10:50:12;;;;;;;4.95;1.65;;;;;;;;;;5083877;28;20043;-58
2023/10/25 10:52:40;;;;;;;4.10;1.80;;;;;;;;;;5101209;27;20031;-59
2023/10/25 10:55:08;;;;;;;2.15;1.70;;;;;;;;;;5108392;27;20034;-57
2023/10/25 10:57:38;;;;;;;2.13;1.75;;;;;;;;;;5112736;27;20027;-59
2023/10/25 11:00:08;;;;;;;2.65;1.75;;;;;;;;;;5101963;28;20532;-58
2023/10/25 11:02:36;;;;;;;4.32;1.75;;;;;;;;;;5105811;28;20027;-57
2023/10/25 11:05:04;;;;;;;4.43;1.58;;;;;;;;;;5099861;28;20062;-58
2023/10/25 11:07:30;;;;;;;3.08;1.83;;;;;;;;;;5094139;28;20043;-59
2023/10/25 11:09:56;;;;;;;1.85;1.55;;;;;;;;;;5097599;28;20035;-58
2023/10/25 11:12:23;;;;;;;2.03;1.48;;;;;;;;;;5097730;28;20059;-58
2023/10/25 11:14:50;;;;;;;1.52;1.40;;;;;;;;;;5098323;28;20031;-59
2023/10/25 11:17:16;;;;;;;3.42;1.83;;;;;;;;;;5097031;28;20399;-58
2023/10/25 11:19:47;;;;;;;2.30;1.42;;;;;;;;;;5116928;28;20046;-59
2023/10/25 11:22:14;;;;;;;4.53;1.40;;;;;;;;;;5108175;28;20052;-58
2023/10/25 11:24:41;;;;;;;5.10;1.70;;;;;;;;;;5117521;28;20671;-58
2023/10/25 11:27:07;;;;;;;1.92;1.50;;;;;;;;;;5121170;28;20039;-58
2023/10/25 11:29:37;;;;;;;1.48;1.38;;;;;;;;;;5107376;28;21341;-57
2023/10/25 11:32:06;;;;;;;2.25;1.40;;;;;;;;;;5115778;28;20415;-58
2023/10/25 11:34:33;;;;;;;1.83;1.30;;;;;;;;;;5107337;28;20046;-58
2023/10/25 11:37:03;;;;;;;2.80;1.20;;;;;;;;;;5109342;28;20289;-58
2023/10/25 11:39:34;;;;;;;1.90;1.50;;;;;;;;;;5110551;28;20048;-61
2023/10/25 11:42:00;;;;;;;2.08;1.38;;;;;;;;;;5108153;28;20032;-58
2023/10/25 11:44:27;;;;;;;1.35;1.23;;;;;;;;;;5115478;28;20051;-58
2023/10/25 11:46:58;;;;;;;3.08;1.38;;;;;;;;;;5094303;28;20043;-58
2023/10/25 11:49:25;;;;;;;1.13;1.00;;;;;;;;;;5101913;28;20055;-58
2023/10/25 11:51:54;;;;;;;3.60;1.52;;;;;;;;;;5115441;28;20498;-57
2023/10/25 11:54:20;;;;;;;3.33;1.60;;;;;;;;;;5101005;28;20059;-58
2023/10/25 11:56:50;;;;;;;1.58;0.95;;;;;;;;;;5107506;28;20028;-57
2023/10/25 11:59:17;;;;;;;1.27;0.90;;;;;;;;;;5107917;28;20047;-57
2023/10/25 12:01:43;;;;;;;1.73;1.15;;;;;;;;;;5110827;28;20043;-58
2023/10/25 12:04:09;;;;;;;1.33;1.00;;;;;;;;;;5104202;28;20035;-58
2023/10/25 12:06:37;;;;;;;1.15;0.90;;;;;;;;;;5106176;28;20040;-58
2023/10/25 12:09:04;;;;;;;1.50;1.20;;;;;;;;;;5106093;28;20028;-57
2023/10/25 12:11:30;;;;;;;1.77;0.90;;;;;;;;;;5116382;28;20041;-58
2023/10/25 12:13:56;;;;;;;2.15;0.80;;;;;;;;;;5113268;27;20426;-58
2023/10/25 12:16:22;;;;;;;0.80;0.80;;;;;;;;;;5119710;27;20038;-60
2023/10/25 12:18:48;;;;;;;1.40;1.00;;;;;;;;;;5127819;27;20039;-58
2023/10/25 12:21:14;;;;;;;1.52;0.85;;;;;;;;;;5114742;27;20552;-58
2023/10/25 12:23:40;;;;;;;0.82;0.73;;;;;;;;;;5091877;28;20040;-58
2023/10/25 12:26:08;;;;;;;0.82;0.65;;;;;;;;;;5122113;27;20429;-58
2023/10/25 12:28:34;;;;;;;1.00;0.70;;;;;;;;;;5112072;27;20034;-58
2023/10/25 12:31:01;;;;;;;1.70;0.90;;;;;;;;;;5115184;27;20398;-58
2023/10/25 12:33:27;;;;;;;1.52;0.90;;;;;;;;;;5119921;27;20437;-58
2023/10/25 12:35:53;;;;;;;1.65;1.02;;;;;;;;;;5089406;28;20536;-57
2023/10/25 12:38:19;;;;;;;1.38;0.90;;;;;;;;;;5105296;27;20423;-58
2023/10/25 12:40:47;;;;;;;0.80;0.68;;;;;;;;;;5107926;27;20039;-58
2023/10/25 12:43:13;;;;;;;1.33;0.57;;;;;;;;;;5097084;27;20047;-58
2023/10/25 12:45:39;;;;;;;0.77;0.55;;;;;;;;;;5117999;27;20043;-58
2023/10/25 12:48:05;;;;;;;0.80;0.57;;;;;;;;;;5108264;27;20044;-58
2023/10/25 12:50:31;;;;;;;1.02;0.70;;;;;;;;;;5111637;27;20390;-58
2023/10/25 12:52:57;;;;;;;3.15;0.80;;;;;;;;;;5091221;28;20391;-59
2023/10/25 12:55:24;;;;;;;0.70;0.70;;;;;;;;;;5106938;27;20038;-59
2023/10/25 12:57:51;;;;;;;1.48;0.68;;;;;;;;;;5110148;27;20062;-59
2023/10/25 13:00:17;;;;;;;3.17;0.60;;;;;;;;;;5102683;27;20028;-59
2023/10/25 13:28:26;;;;;;;3.30;1.73;;;;;;;;;;5076821;27;20443;-56
2023/10/25 13:30:52;;;;;;;2.53;0.90;;;;;;;;;;5061636;28;20036;-58
2023/10/25 13:33:18;;;;;;;2.65;0.80;;;;;;;;;;5062844;28;20063;-58
2023/10/25 13:35:45;;;;;;;1.30;0.90;;;;;;;;;;5061432;28;20056;-58
2023/10/25 13:38:11;;;;;;;0.73;0.70;;;;;;;;;;5061078;28;20040;-57
2023/10/25 13:40:37;;;;;;;1.85;0.70;;;;;;;;;;5060711;28;20400;-58
2023/10/25 13:43:03;;;;;;;1.30;1.10;;;;;;;;;;5052626;28;20421;-58
2023/10/25 13:45:30;;;;;;;1.20;0.88;;;;;;;;;;5047993;28;20041;-57
2023/10/25 13:47:56;;;;;;;1.48;0.80;;;;;;;;;;5048394;28;20037;-58
2023/10/25 13:50:22;;;;;;;2.40;0.80;;;;;;;;;;5055750;28;20489;-57
2023/10/25 13:52:48;;;;;;;1.50;0.98;;;;;;;;;;5055234;28;20497;-58
2023/10/25 13:55:15;;;;;;;1.02;0.93;;;;;;;;;;5057674;28;20040;-57
2023/10/25 13:57:41;;;;;;;1.23;1.00;;;;;;;;;;5059822;28;20051;-58
2023/10/25 14:00:10;;;;;;;1.00;0.88;;;;;;;;;;5059453;28;20045;-58
2023/10/25 14:02:40;;;;;;;2.20;1.10;;;;;;;;;;5059359;28;20044;-59
2023/10/25 14:05:06;;;;;;;0.98;0.88;;;;;;;;;;5061295;28;20064;-58
2023/10/25 14:07:33;;;;;;;1.73;1.00;;;;;;;;;;5044619;28;20044;-58
2023/10/25 14:09:59;;;;;;;2.42;1.08;;;;;;;;;;5055689;28;20044;-58
2023/10/25 14:12:27;;;;;;;1.00;0.90;;;;;;;;;;5059852;28;20032;-58
2023/10/25 14:14:54;;;;;;;3.13;1.00;;;;;;;;;;5059157;28;20036;-58
2023/10/25 14:17:20;;;;;;;0.93;0.90;;;;;;;;;;5060010;28;20107;-58
2023/10/25 14:19:46;;;;;;;2.97;1.35;;;;;;;;;;5058717;28;20136;-58
2023/10/25 14:22:12;;;;;;;2.17;0.68;;;;;;;;;;5061326;28;20040;-58
2023/10/25 14:24:39;;;;;;;0.98;0.70;;;;;;;;;;5058013;28;20052;-58
2023/10/25 14:27:05;;;;;;;2.67;0.88;;;;;;;;;;5059245;28;20051;-58
2023/10/25 14:29:31;;;;;;;1.38;0.77;;;;;;;;;;5041686;28;20053;-58
2023/10/25 14:31:57;;;;;;;2.38;0.93;;;;;;;;;;5046212;28;20383;-58
2023/10/25 14:34:23;;;;;;;1.55;1.10;;;;;;;;;;5041637;28;20372;-58
2023/10/25 14:36:49;;;;;;;2.90;1.40;;;;;;;;;;5038567;28;20397;-58
2023/10/25 14:39:15;;;;;;;1.42;1.00;;;;;;;;;;5041268;28;20038;-57
2023/10/25 14:41:42;;;;;;;1.17;1.05;;;;;;;;;;5047367;28;20505;-58
2023/10/25 14:44:08;;;;;;;1.65;1.00;;;;;;;;;;5043414;28;20037;-58
2023/10/25 14:46:34;;;;;;;1.42;1.10;;;;;;;;;;5045814;28;20044;-58
2023/10/25 14:49:02;;;;;;;0.98;0.90;;;;;;;;;;5046848;28;20052;-57
2023/10/25 14:51:28;;;;;;;1.05;0.95;;;;;;;;;;5044499;28;20051;-57
2023/10/25 14:53:55;;;;;;;1.27;1.00;;;;;;;;;;5046973;28;20528;-58
2023/10/25 14:56:22;;;;;;;2.60;1.30;;;;;;;;;;5044109;28;20037;-58
2023/10/25 14:58:52;;;;;;;0.88;0.77;;;;;;;;;;5033893;28;20045;-57
2023/10/25 15:01:19;;;;;;;1.77;1.00;;;;;;;;;;5038276;28;20029;-58
2023/10/25 15:03:45;;;;;;;1.45;1.10;;;;;;;;;;5045199;28;20033;-57
2023/10/25 15:06:13;;;;;;;1.33;1.10;;;;;;;;;;5040931;28;20048;-57
2023/10/25 15:08:39;;;;;;;1.60;0.98;;;;;;;;;;5037720;28;20527;-57